Česky Dansk Deutsch English Español Suomi Français Magyar Italiano Nederlands norsk Polski Português svenska Türkçe

 

Het Weer

Paderborn / Lippstadt (Duitsland)

21:50, 17 augustus 2016 (GMT)

NWNNE
WE
SWSSE
Home            
Paderborn / Lippstadt Guetersloh Kassel / Calden Dortmund / Wickede Fritzlar Bueckeburg Muenster / Osnabrueck Hessen Wunstorf Hopsten Diepholz Rheine-Bentlage Essen Hannover Koeln / Bonn Duesseldorf Nordhorn Twenthe Celle Braunschweig Meppen-Mil Monchengladbach Bremen

Om een weerknop op uw website of weblog te plaatsen, copieer onderstaande code en plak die in uw pagina. In het eerste vakje staat HTML-code, in het tweede vakje UBB-code.


Add to Google

Details

Wind speed:2 bf, 5 kn, 2.6 m/s, 5.8 miles/h, 9.3 km/h
Wind direction:SSE, 160°
Visibility:Greater than 10000 m, 10 km, 32800 ft, 6.2 miles
Clouds:CAVOC
Temperature:13°C, 55°F
Dew-point:8°C, 46°F
Atmospheric pressure:1013 hPa, 759.8 mmHg, 29.91 inHg, 1.000 atm
Relative humidity:71.6 %
METAR:EDLP 172150Z 16005KT CAVOK 13/08 Q1013

Snelkoppelingen

Actuele weersinformatie van de hele wereld. Voeg locaties toe met het plus (+) symbool. Deze snelkoppelingen kunnen worden toegevoegd aan Google.

Lid van de Technetium groep

website free tracking
StatCounter NetStat W3C Validator

06-07-2022 04:03:38
astro.technetium.be money.technetium.be phote.technetium.be tafeltennistafel.technetium.be www.ligfiets.net